Time,TemperatureF,DewpointF,PressureIn,WindDirection,WindDirectionDegrees,WindSpeedMPH,WindSpeedGustMPH,Humidity,HourlyPrecipIn,Conditions,Clouds,dailyrainin,SoftwareType,DateUTC
2013-08-06 00:01:00,61.1,46.3,29.41,WNW,293,0.0,0.0,58,-99.99,,,-99.99,WSDL version 342,2013-08-06 04:01:00,
2013-08-06 00:02:00,61.1,46.2,29.41,WNW,293,0.0,0.0,58,-99.99,,,-99.99,WSDL version 342,2013-08-06 04:02:00,
2013-08-06 00:03:00,61.1,46.2,29.41,WNW,293,0.0,0.0,58,-99.99,,,-99.99,WSDL version 342,2013-08-06 04:03:00,
2013-08-06 00:07:00,60.9,46.1,29.41,WNW,293,0.0,0.0,58,-99.99,,,-99.99,WSDL version 342,2013-08-06 04:07:00,
2013-08-06 00:08:00,60.9,46.0,29.41,WNW,293,0.0,0.0,58,-99.99,,,-99.99,WSDL version 342,2013-08-06 04:08:00,
2013-08-06 02:26:00,56.8,48.7,29.50,WNW,293,1.1,1.6,74,-99.99,,,-99.99,WSDL version 342,2013-08-06 06:26:00,
2013-08-06 02:31:00,56.8,48.7,29.50,WNW,293,1.0,1.6,74,-99.99,,,-99.99,WSDL version 342,2013-08-06 06:31:00,
2013-08-06 02:36:00,56.8,48.9,29.50,WNW,293,1.3,1.6,75,-99.99,,,-99.99,WSDL version 342,2013-08-06 06:36:00,
2013-08-06 02:41:00,56.8,49.2,29.50,WNW,293,1.1,1.6,76,-99.99,,,-99.99,WSDL version 342,2013-08-06 06:41:00,
2013-08-06 02:46:00,56.8,49.4,29.50,WNW,293,0.7,1.6,76,-99.99,,,-99.99,WSDL version 342,2013-08-06 06:46:00,
2013-08-06 02:51:00,57.0,49.5,29.50,WNW,293,1.3,1.6,76,-99.99,,,-99.99,WSDL version 342,2013-08-06 06:51:00,
2013-08-06 02:56:00,57.0,49.5,29.50,WNW,293,1.2,2.0,76,-99.99,,,-99.99,WSDL version 342,2013-08-06 06:56:00,
2013-08-06 03:01:00,56.9,49.5,29.50,WNW,293,1.2,2.0,76,-99.99,,,-99.99,WSDL version 342,2013-08-06 07:01:00,
2013-08-06 03:06:00,57.0,49.9,29.50,WNW,293,1.2,2.0,77,-99.99,,,-99.99,WSDL version 342,2013-08-06 07:06:00,
2013-08-06 03:11:00,56.9,49.8,29.50,WNW,293,1.2,2.0,77,-99.99,,,-99.99,WSDL version 342,2013-08-06 07:11:00,
2013-08-06 03:16:00,56.8,49.7,29.50,WNW,293,0.5,2.0,77,-99.99,,,-99.99,WSDL version 342,2013-08-06 07:16:00,
2013-08-06 03:21:00,56.8,49.9,29.50,WNW,293,0.0,1.3,78,-99.99,,,-99.99,WSDL version 342,2013-08-06 07:21:00,
2013-08-06 03:26:00,56.7,49.9,29.50,WNW,293,0.0,0.0,78,-99.99,,,-99.99,WSDL version 342,2013-08-06 07:26:00,
2013-08-06 03:31:00,56.7,49.9,29.50,WNW,293,0.0,0.0,78,-99.99,,,-99.99,WSDL version 342,2013-08-06 07:31:00,
2013-08-06 03:36:00,56.7,49.9,29.50,WNW,293,0.0,0.0,78,-99.99,,,-99.99,WSDL version 342,2013-08-06 07:36:00,
2013-08-06 03:41:00,56.6,49.8,29.50,WNW,293,0.0,0.0,78,-99.99,,,-99.99,WSDL version 342,2013-08-06 07:41:00,
2013-08-06 03:46:00,56.5,49.7,29.50,WNW,293,0.0,0.0,78,-99.99,,,-99.99,WSDL version 342,2013-08-06 07:46:00,
2013-08-06 03:51:00,56.5,49.7,29.50,WNW,293,0.0,0.0,78,-99.99,,,-99.99,WSDL version 342,2013-08-06 07:51:00,
2013-08-06 03:56:00,56.3,49.9,29.50,WNW,293,0.0,0.0,79,-99.99,,,-99.99,WSDL version 342,2013-08-06 07:56:00,
2013-08-06 04:01:00,56.3,49.9,29.47,WNW,293,0.0,0.0,79,-99.99,,,-99.99,WSDL version 342,2013-08-06 08:01:00,
2013-08-06 04:06:00,56.2,49.8,29.47,WNW,293,0.0,0.0,79,-99.99,,,-99.99,WSDL version 342,2013-08-06 08:06:00,
2013-08-06 04:11:00,56.1,49.7,29.47,WNW,293,0.0,0.0,79,-99.99,,,-99.99,WSDL version 342,2013-08-06 08:11:00,
2013-08-06 04:16:00,56.0,49.6,29.50,WNW,293,1.1,2.0,79,-99.99,,,-99.99,WSDL version 342,2013-08-06 08:16:00,
2013-08-06 04:21:00,55.9,49.4,29.50,WNW,293,1.5,2.0,79,-99.99,,,-99.99,WSDL version 342,2013-08-06 08:21:00,
2013-08-06 04:26:00,55.6,49.3,29.50,WNW,293,1.3,2.0,80,-99.99,,,-99.99,WSDL version 342,2013-08-06 08:26:00,
2013-08-06 04:31:00,55.5,49.4,29.50,WNW,293,1.4,2.0,80,-99.99,,,-99.99,WSDL version 342,2013-08-06 08:31:00,
2013-08-06 04:36:00,55.4,49.3,29.50,WNW,293,1.2,2.0,80,-99.99,,,-99.99,WSDL version 342,2013-08-06 08:36:00,
2013-08-06 04:41:00,55.3,49.5,29.50,WNW,293,1.3,1.6,81,-99.99,,,-99.99,WSDL version 342,2013-08-06 08:41:00,
2013-08-06 04:46:00,55.2,49.5,29.50,WNW,293,1.1,1.6,81,-99.99,,,-99.99,WSDL version 342,2013-08-06 08:46:00,
2013-08-06 04:51:00,55.2,49.5,29.50,WNW,293,1.2,1.6,81,-99.99,,,-99.99,WSDL version 342,2013-08-06 08:51:00,
2013-08-06 04:56:00,55.2,49.8,29.50,WNW,293,1.5,2.0,82,-99.99,,,-99.99,WSDL version 342,2013-08-06 08:56:00,
2013-08-06 05:01:00,55.0,49.7,29.50,WNW,288,1.2,2.0,82,-99.99,,,-99.99,WSDL version 342,2013-08-06 09:01:00,
2013-08-06 05:06:00,55.0,49.7,29.50,West,270,1.3,2.0,82,-99.99,,,-99.99,WSDL version 342,2013-08-06 09:06:00,
2013-08-06 05:11:00,54.9,49.5,29.50,West,270,0.0,2.0,82,-99.99,,,-99.99,WSDL version 342,2013-08-06 09:11:00,
2013-08-06 05:16:00,54.9,49.9,29.50,West,270,0.8,2.0,83,-99.99,,,-99.99,WSDL version 342,2013-08-06 09:16:00,
2013-08-06 05:21:00,54.9,49.9,29.50,West,270,1.8,2.0,83,-99.99,,,-99.99,WSDL version 342,2013-08-06 09:21:00,
2013-08-06 05:26:00,54.7,49.7,29.50,West,270,0.4,2.0,83,-99.99,,,-99.99,WSDL version 342,2013-08-06 09:26:00,
2013-08-06 05:31:00,54.7,49.7,29.50,West,270,0.3,1.6,83,-99.99,,,-99.99,WSDL version 342,2013-08-06 09:31:00,
2013-08-06 05:36:00,54.6,49.6,29.50,West,270,0.0,1.1,83,-99.99,,,-99.99,WSDL version 342,2013-08-06 09:36:00,
2013-08-06 05:41:00,54.5,49.6,29.50,West,270,0.0,1.1,83,-99.99,,,-99.99,WSDL version 342,2013-08-06 09:41:00,
2013-08-06 05:46:00,54.5,49.9,29.53,West,270,0.0,0.0,84,-99.99,,,-99.99,WSDL version 342,2013-08-06 09:46:00,
2013-08-06 05:51:00,54.5,49.9,29.53,West,270,0.0,0.0,84,-99.99,,,-99.99,WSDL version 342,2013-08-06 09:51:00,
2013-08-06 05:56:00,54.5,49.9,29.53,West,270,0.0,0.0,84,-99.99,,,-99.99,WSDL version 342,2013-08-06 09:56:00,
2013-08-06 06:01:00,54.4,49.8,29.53,West,270,0.0,0.0,84,-99.99,,,-99.99,WSDL version 342,2013-08-06 10:01:00,
2013-08-06 06:06:00,54.4,50.1,29.53,West,270,0.0,0.0,86,-99.99,,,-99.99,WSDL version 342,2013-08-06 10:06:00,
2013-08-06 06:11:00,54.3,50.1,29.53,West,270,0.0,0.0,86,-99.99,,,-99.99,WSDL version 342,2013-08-06 10:11:00,
2013-08-06 06:16:00,54.4,50.1,29.53,West,270,0.0,0.0,86,-99.99,,,-99.99,WSDL version 342,2013-08-06 10:16:00,
2013-08-06 06:21:00,54.5,50.3,29.53,West,270,0.0,0.0,86,-99.99,,,-99.99,WSDL version 342,2013-08-06 10:21:00,
2013-08-06 06:26:00,54.5,50.3,29.53,West,270,0.0,0.0,86,-99.99,,,-99.99,WSDL version 342,2013-08-06 10:26:00,
2013-08-06 06:31:00,54.4,50.2,29.53,West,270,0.0,0.0,86,-99.99,,,-99.99,WSDL version 342,2013-08-06 10:31:00,
2013-08-06 06:36:00,54.4,50.1,29.53,West,270,0.0,0.0,86,-99.99,,,-99.99,WSDL version 342,2013-08-06 10:36:00,
2013-08-06 06:41:00,54.3,50.1,29.53,West,270,0.0,0.0,86,-99.99,,,-99.99,WSDL version 342,2013-08-06 10:41:00,
2013-08-06 06:46:00,54.3,50.1,29.56,WNW,293,0.0,0.0,86,-99.99,,,-99.99,WSDL version 342,2013-08-06 10:46:00,
2013-08-06 06:51:00,54.5,50.3,29.56,WNW,293,0.0,0.0,86,-99.99,,,-99.99,WSDL version 342,2013-08-06 10:51:00,
2013-08-06 06:56:00,54.5,50.5,29.56,WNW,293,0.0,0.0,87,-99.99,,,-99.99,WSDL version 342,2013-08-06 10:56:00,
2013-08-06 07:01:00,54.5,50.7,29.53,WNW,293,0.0,0.0,88,-99.99,,,-99.99,WSDL version 342,2013-08-06 11:01:00,
2013-08-06 07:06:00,54.8,51.3,29.53,WNW,293,0.0,0.0,88,-99.99,,,-99.99,WSDL version 342,2013-08-06 11:06:00,
2013-08-06 07:11:00,55.0,51.7,29.53,WNW,293,0.0,0.0,89,-99.99,,,-99.99,WSDL version 342,2013-08-06 11:11:00,
2013-08-06 07:16:00,55.1,51.9,29.53,WNW,293,0.0,0.0,89,-99.99,,,-99.99,WSDL version 342,2013-08-06 11:16:00,
2013-08-06 07:23:00,55.5,52.2,29.53,WNW,293,0.0,0.0,89,-99.99,,,-99.99,WSDL version 342,2013-08-06 11:23:00,
2013-08-06 07:28:00,55.7,52.6,29.53,WNW,293,0.0,0.0,90,-99.99,,,-99.99,WSDL version 342,2013-08-06 11:28:00,
2013-08-06 07:33:00,56.1,53.3,29.53,WNW,293,0.0,0.0,91,-99.99,,,-99.99,WSDL version 342,2013-08-06 11:33:00,
2013-08-06 07:38:00,56.5,53.9,29.53,WNW,293,0.0,0.0,91,-99.99,,,-99.99,WSDL version 342,2013-08-06 11:38:00,
2013-08-06 07:43:00,56.9,54.5,29.53,WNW,293,0.0,0.0,92,-99.99,,,-99.99,WSDL version 342,2013-08-06 11:43:00,
2013-08-06 07:48:00,57.5,55.2,29.53,WNW,293,0.0,0.0,92,-99.99,,,-99.99,WSDL version 342,2013-08-06 11:48:00,
2013-08-06 07:53:00,58.2,55.9,29.53,WNW,293,0.0,0.0,92,-99.99,,,-99.99,WSDL version 342,2013-08-06 11:53:00,
2013-08-06 07:58:00,58.7,56.1,29.53,NW,315,0.0,0.0,90,-99.99,,,-99.99,WSDL version 342,2013-08-06 11:58:00,
2013-08-06 08:03:00,59.4,56.4,29.53,NW,315,0.0,0.0,90,-99.99,,,-99.99,WSDL version 342,2013-08-06 12:03:00,
2013-08-06 08:08:00,60.0,57.1,29.53,NW,315,0.0,0.0,90,-99.99,,,-99.99,WSDL version 342,2013-08-06 12:08:00,
2013-08-06 08:13:00,60.4,57.3,29.53,WNW,302,0.0,0.0,89,-99.99,,,-99.99,WSDL version 342,2013-08-06 12:13:00,
2013-08-06 08:18:00,61.2,57.5,29.53,NW,315,0.0,0.0,88,-99.99,,,-99.99,WSDL version 342,2013-08-06 12:18:00,
2013-08-06 08:23:00,61.7,57.4,29.53,NNW,347,0.0,0.0,84,-99.99,,,-99.99,WSDL version 342,2013-08-06 12:23:00,
2013-08-06 08:28:00,62.2,57.2,29.53,NNE,23,0.0,0.0,83,-99.99,,,-99.99,WSDL version 342,2013-08-06 12:28:00,
2013-08-06 08:33:00,62.9,57.4,29.53,NE,45,0.0,0.0,82,-99.99,,,-99.99,WSDL version 342,2013-08-06 12:33:00,
2013-08-06 08:38:00,63.8,58.1,29.53,NE,45,0.0,0.0,81,-99.99,,,-99.99,WSDL version 342,2013-08-06 12:38:00,
2013-08-06 08:43:00,64.5,58.4,29.53,NE,45,0.0,0.0,80,-99.99,,,-99.99,WSDL version 342,2013-08-06 12:43:00,
2013-08-06 08:48:00,64.9,58.4,29.53,ENE,68,0.0,0.0,79,-99.99,,,-99.99,WSDL version 342,2013-08-06 12:48:00,
2013-08-06 08:53:00,65.4,57.6,29.53,ENE,68,0.0,0.0,74,-99.99,,,-99.99,WSDL version 342,2013-08-06 12:53:00,
2013-08-06 08:58:00,65.8,55.8,29.53,ENE,68,0.0,0.0,68,-99.99,,,-99.99,WSDL version 342,2013-08-06 12:58:00,
2013-08-06 09:03:00,66.1,54.0,29.53,East,96,0.0,0.0,63,-99.99,,,-99.99,WSDL version 342,2013-08-06 13:03:00,
2013-08-06 09:08:00,66.5,53.3,29.53,SW,214,0.0,0.0,62,-99.99,,,-99.99,WSDL version 342,2013-08-06 13:08:00,
2013-08-06 09:13:00,66.8,52.2,29.53,NE,45,0.4,1.1,57,-99.99,,,-99.99,WSDL version 342,2013-08-06 13:13:00,
2013-08-06 09:18:00,67.2,51.3,29.53,NE,51,0.0,1.6,56,-99.99,,,-99.99,WSDL version 342,2013-08-06 13:18:00,
2013-08-06 09:23:00,67.4,50.4,29.53,SW,225,0.4,1.6,55,-99.99,,,-99.99,WSDL version 342,2013-08-06 13:23:00,
2013-08-06 09:28:00,67.7,48.4,29.53,West,262,0.0,1.6,49,-99.99,,,-99.99,WSDL version 342,2013-08-06 13:28:00,
2013-08-06 09:33:00,67.9,47.2,29.56,SE,135,0.0,2.5,47,-99.99,,,-99.99,WSDL version 342,2013-08-06 13:33:00,
2013-08-06 09:38:00,68.3,46.8,29.56,NNE,28,1.0,2.5,46,-99.99,,,-99.99,WSDL version 342,2013-08-06 13:38:00,
2013-08-06 09:43:00,68.6,45.8,29.56,NW,319,0.0,2.0,43,-99.99,,,-99.99,WSDL version 342,2013-08-06 13:43:00,
2013-08-06 09:48:00,68.9,45.4,29.56,NW,315,0.0,1.6,43,-99.99,,,-99.99,WSDL version 342,2013-08-06 13:48:00,
2013-08-06 09:53:00,69.2,44.8,29.56,SSE,158,0.0,2.0,41,-99.99,,,-99.99,WSDL version 342,2013-08-06 13:53:00,
2013-08-06 09:58:00,69.6,44.0,29.56,ESE,121,0.8,2.2,38,-99.99,,,-99.99,WSDL version 342,2013-08-06 13:58:00,
2013-08-06 10:03:00,69.8,42.0,29.56,ESE,113,0.5,2.2,36,-99.99,,,-99.99,WSDL version 342,2013-08-06 14:03:00,
2013-08-06 10:08:00,70.1,40.8,29.56,North,349,1.5,3.6,35,-99.99,,,-99.99,WSDL version 342,2013-08-06 14:08:00,
2013-08-06 10:13:00,70.4,41.5,29.56,ENE,71,0.7,3.6,34,-99.99,,,-99.99,WSDL version 342,2013-08-06 14:13:00,
2013-08-06 10:18:00,70.6,40.2,29.56,SSE,167,0.4,2.7,33,-99.99,,,-99.99,WSDL version 342,2013-08-06 14:18:00,
2013-08-06 10:23:00,71.1,40.0,29.56,SE,125,0.2,3.1,33,-99.99,,,-99.99,WSDL version 342,2013-08-06 14:23:00,
2013-08-06 10:28:00,71.5,40.5,29.56,North,360,1.3,3.1,32,-99.99,,,-99.99,WSDL version 342,2013-08-06 14:28:00,
2013-08-06 10:33:00,72.0,40.5,29.56,East,87,1.2,3.1,32,-99.99,,,-99.99,WSDL version 342,2013-08-06 14:33:00,
2013-08-06 10:38:00,72.3,38.9,29.56,NNE,23,0.3,2.5,29,-99.99,,,-99.99,WSDL version 342,2013-08-06 14:38:00,
2013-08-06 10:43:00,72.7,36.8,29.56,ESE,122,1.5,2.7,26,-99.99,,,-99.99,WSDL version 342,2013-08-06 14:43:00,
2013-08-06 10:48:00,73.0,35.9,29.56,ESE,116,1.8,3.6,26,-99.99,,,-99.99,WSDL version 342,2013-08-06 14:48:00,
2013-08-06 10:53:00,73.9,37.4,29.56,NE,51,0.5,3.6,28,-99.99,,,-99.99,WSDL version 342,2013-08-06 14:53:00,
2013-08-06 10:58:00,74.6,37.7,29.53,SE,129,1.3,2.7,25,-99.99,,,-99.99,WSDL version 342,2013-08-06 14:58:00,
2013-08-06 11:03:00,75.0,36.3,29.53,ESE,120,1.9,3.6,24,-99.99,,,-99.99,WSDL version 342,2013-08-06 15:03:00,
2013-08-06 11:08:00,74.8,35.6,29.53,East,100,1.2,3.6,25,-99.99,,,-99.99,WSDL version 342,2013-08-06 15:08:00,
2013-08-06 11:13:00,75.4,35.6,29.56,WNW,285,0.7,3.1,23,-99.99,,,-99.99,WSDL version 342,2013-08-06 15:13:00,
2013-08-06 11:19:00,76.2,37.3,29.56,NNE,29,0.4,2.7,25,-99.99,,,-99.99,WSDL version 342,2013-08-06 15:19:00,
2013-08-06 11:25:00,76.8,36.8,29.56,NE,42,1.2,2.2,23,-99.99,,,-99.99,WSDL version 342,2013-08-06 15:25:00,
2013-08-06 11:30:00,77.4,36.4,29.56,North,360,2.1,2.9,22,-99.99,,,-99.99,WSDL version 342,2013-08-06 15:30:00,
2013-08-06 11:35:00,77.7,35.8,29.56,ENE,64,1.1,2.9,22,-99.99,,,-99.99,WSDL version 342,2013-08-06 15:35:00,
2013-08-06 11:40:00,77.8,35.6,29.56,SE,129,1.4,3.4,21,-99.99,,,-99.99,WSDL version 342,2013-08-06 15:40:00,
2013-08-06 11:45:00,77.5,34.0,29.56,SSW,203,3.3,4.9,21,-99.99,,,-99.99,WSDL version 342,2013-08-06 15:45:00,
2013-08-06 11:50:00,77.5,34.6,29.56,East,90,2.4,4.9,21,-99.99,,,-99.99,WSDL version 342,2013-08-06 15:50:00,
2013-08-06 11:55:00,77.9,34.9,29.56,SE,145,0.8,3.4,21,-99.99,,,-99.99,WSDL version 342,2013-08-06 15:55:00,
2013-08-06 12:00:00,78.4,34.3,29.56,SW,222,2.5,3.6,18,-99.99,,,-99.99,WSDL version 342,2013-08-06 16:00:00,
2013-08-06 12:05:00,78.4,31.5,29.56,East,101,1.4,3.6,18,-99.99,,,-99.99,WSDL version 342,2013-08-06 16:05:00,
2013-08-06 12:10:00,79.1,33.6,29.56,SE,143,1.1,3.6,17,-99.99,,,-99.99,WSDL version 342,2013-08-06 16:10:00,
2013-08-06 12:15:00,79.1,30.6,29.56,South,191,1.3,4.9,17,-99.99,,,-99.99,WSDL version 342,2013-08-06 16:15:00,
2013-08-06 12:23:00,79.6,32.0,29.56,SSE,165,1.5,3.4,17,-99.99,,,-99.99,WSDL version 342,2013-08-06 16:23:00,
2013-08-06 12:28:00,79.9,31.2,29.56,ESE,120,1.7,3.4,17,-99.99,,,-99.99,WSDL version 342,2013-08-06 16:28:00,
2013-08-06 12:33:00,80.3,31.6,29.56,South,183,0.0,3.4,17,-99.99,,,-99.99,WSDL version 342,2013-08-06 16:33:00,
2013-08-06 12:38:00,80.8,32.0,29.56,ENE,60,1.2,4.0,17,-99.99,,,-99.99,WSDL version 342,2013-08-06 16:38:00,
2013-08-06 12:43:00,81.0,32.1,29.56,East,90,1.5,4.9,17,-99.99,,,-99.99,WSDL version 342,2013-08-06 16:43:00,
2013-08-06 12:48:00,82.2,32.3,29.56,NE,48,1.0,4.9,16,-99.99,,,-99.99,WSDL version 342,2013-08-06 16:48:00,
2013-08-06 12:53:00,83.4,32.5,29.56,ESE,116,1.6,3.1,16,-99.99,,,-99.99,WSDL version 342,2013-08-06 16:53:00,
2013-08-06 12:58:00,83.3,32.5,29.53,ESE,119,1.4,3.8,16,-99.99,,,-99.99,WSDL version 342,2013-08-06 16:58:00,
2013-08-06 13:03:00,83.3,29.1,29.53,West,270,1.2,4.0,14,-99.99,,,-99.99,WSDL version 342,2013-08-06 17:03:00,
2013-08-06 13:08:00,83.2,29.1,29.53,SSE,158,2.3,4.0,14,-99.99,,,-99.99,WSDL version 342,2013-08-06 17:08:00,
2013-08-06 13:14:00,83.8,29.6,29.50,North,6,1.7,4.9,14,-99.99,,,-99.99,WSDL version 342,2013-08-06 17:14:00,
2013-08-06 13:19:00,83.4,29.3,29.50,SW,225,1.3,4.9,14,-99.99,,,-99.99,WSDL version 342,2013-08-06 17:19:00,
2013-08-06 13:24:00,83.4,30.3,29.50,South,185,1.3,3.4,16,-99.99,,,-99.99,WSDL version 342,2013-08-06 17:24:00,
2013-08-06 13:29:00,83.9,30.5,29.53,ESE,113,1.3,3.4,14,-99.99,,,-99.99,WSDL version 342,2013-08-06 17:29:00,
2013-08-06 13:30:00,83.9,30.5,29.53,East,96,1.6,3.4,14,-99.99,,,-99.99,WSDL version 342,2013-08-06 17:30:00,
2013-08-06 13:35:00,84.0,33.0,29.53,South,169,1.8,2.9,16,-99.99,,,-99.99,WSDL version 342,2013-08-06 17:35:00,
2013-08-06 13:47:00,85.1,33.9,29.53,SE,124,1.3,2.7,16,-99.99,,,-99.99,WSDL version 342,2013-08-06 17:47:00,
2013-08-06 13:53:00,85.4,29.0,29.53,SW,216,2.5,4.3,13,-99.99,,,-99.99,WSDL version 342,2013-08-06 17:53:00,
2013-08-06 14:01:00,84.4,28.2,29.50,SSE,148,1.9,3.8,13,-99.99,,,-99.99,WSDL version 342,2013-08-06 18:01:00,
2013-08-06 14:07:00,83.9,29.7,29.50,South,186,1.9,4.5,14,-99.99,,,-99.99,WSDL version 342,2013-08-06 18:07:00,
2013-08-06 14:14:00,85.3,29.0,29.50,NE,42,1.8,3.8,13,-99.99,,,-99.99,WSDL version 342,2013-08-06 18:14:00,
2013-08-06 14:20:00,84.8,28.6,29.50,NNE,13,1.3,3.8,13,-99.99,,,-99.99,WSDL version 342,2013-08-06 18:20:00,
2013-08-06 14:25:00,83.7,29.1,29.50,SSE,154,2.2,4.9,14,-99.99,,,-99.99,WSDL version 342,2013-08-06 18:25:00,
2013-08-06 14:31:00,83.1,29.0,29.50,SSE,161,2.0,3.6,14,-99.99,,,-99.99,WSDL version 342,2013-08-06 18:31:00,
2013-08-06 14:37:00,82.9,28.9,29.50,ESE,103,0.9,3.6,14,-99.99,,,-99.99,WSDL version 342,2013-08-06 18:37:00,
2013-08-06 14:42:00,83.9,31.3,29.50,NE,51,1.7,3.6,16,-99.99,,,-99.99,WSDL version 342,2013-08-06 18:42:00,
2013-08-06 14:47:00,84.7,28.5,29.47,ENE,72,1.5,3.6,13,-99.99,,,-99.99,WSDL version 342,2013-08-06 18:47:00,
2013-08-06 14:52:00,84.5,28.3,29.47,ENE,68,0.9,3.6,13,-99.99,,,-99.99,WSDL version 342,2013-08-06 18:52:00,
2013-08-06 14:59:00,83.5,32.6,29.50,SSW,206,1.3,2.2,16,-99.99,,,-99.99,WSDL version 342,2013-08-06 18:59:00,
2013-08-06 15:04:00,83.4,32.5,29.50,North,11,0.9,2.2,16,-99.99,,,-99.99,WSDL version 342,2013-08-06 19:04:00,
2013-08-06 15:09:00,83.5,32.6,29.50,NNE,29,1.6,2.5,16,-99.99,,,-99.99,WSDL version 342,2013-08-06 19:09:00,
2013-08-06 15:15:00,84.3,31.5,29.50,ENE,62,2.2,3.6,16,-99.99,,,-99.99,WSDL version 342,2013-08-06 19:15:00,
2013-08-06 15:20:00,83.6,30.8,29.50,ENE,71,1.5,4.0,16,-99.99,,,-99.99,WSDL version 342,2013-08-06 19:20:00,
2013-08-06 15:25:00,83.0,28.9,29.50,SSE,150,2.6,4.0,14,-99.99,,,-99.99,WSDL version 342,2013-08-06 19:25:00,
2013-08-06 15:30:00,82.2,28.3,29.50,SE,132,3.4,6.3,14,-99.99,,,-99.99,WSDL version 342,2013-08-06 19:30:00,
2013-08-06 15:35:00,82.5,28.5,29.50,ESE,116,2.5,6.3,14,-99.99,,,-99.99,WSDL version 342,2013-08-06 19:35:00,
2013-08-06 15:40:00,81.7,28.0,29.50,ESE,113,1.7,4.3,14,-99.99,,,-99.99,WSDL version 342,2013-08-06 19:40:00,
2013-08-06 15:45:00,81.5,27.8,29.50,ESE,113,2.1,4.3,14,-99.99,,,-99.99,WSDL version 342,2013-08-06 19:45:00,
2013-08-06 15:50:00,81.4,31.3,29.50,ENE,61,1.8,3.6,17,-99.99,,,-99.99,WSDL version 342,2013-08-06 19:50:00,
2013-08-06 15:55:00,82.6,30.9,29.50,SE,141,2.2,4.0,14,-99.99,,,-99.99,WSDL version 342,2013-08-06 19:55:00,
2013-08-06 16:00:00,82.2,28.3,29.50,SE,128,1.3,5.8,14,-99.99,,,-99.99,WSDL version 342,2013-08-06 20:00:00,
2013-08-06 16:05:00,82.2,28.3,29.50,East,81,2.6,5.8,14,-99.99,,,-99.99,WSDL version 342,2013-08-06 20:05:00,
2013-08-06 16:10:00,82.3,29.3,29.50,NNW,338,2.2,3.8,14,-99.99,,,-99.99,WSDL version 342,2013-08-06 20:10:00,
2013-08-06 16:15:00,82.2,28.3,29.50,ESE,113,1.8,4.0,14,-99.99,,,-99.99,WSDL version 342,2013-08-06 20:15:00,
2013-08-06 16:20:00,81.4,27.7,29.50,East,98,1.5,4.0,14,-99.99,,,-99.99,WSDL version 342,2013-08-06 20:20:00,
2013-08-06 16:25:00,80.4,31.6,29.50,SE,135,2.4,6.3,17,-99.99,,,-99.99,WSDL version 342,2013-08-06 20:25:00,
2013-08-06 16:30:00,79.0,34.9,29.53,SSE,151,2.6,6.3,21,-99.99,,,-99.99,WSDL version 342,2013-08-06 20:30:00,
2013-08-06 16:32:00,78.7,35.2,29.53,ESE,121,1.8,5.8,21,-99.99,,,-99.99,WSDL version 342,2013-08-06 20:32:00,
2013-08-06 16:37:00,78.5,35.4,29.53,SSE,164,2.4,4.0,21,-99.99,,,-99.99,WSDL version 342,2013-08-06 20:37:00,
2013-08-06 16:42:00,77.9,34.9,29.53,WNW,289,2.2,4.3,21,-99.99,,,-99.99,WSDL version 342,2013-08-06 20:42:00,
2013-08-06 16:47:00,77.0,36.2,29.50,SSE,155,1.8,6.5,23,-99.99,,,-99.99,WSDL version 342,2013-08-06 20:47:00,
2013-08-06 16:52:00,76.1,37.8,29.50,South,169,2.6,6.5,25,-99.99,,,-99.99,WSDL version 342,2013-08-06 20:52:00,
2013-08-06 16:58:00,75.4,37.2,29.47,ESE,113,1.3,3.8,25,-99.99,,,-99.99,WSDL version 342,2013-08-06 20:58:00,
2013-08-06 17:03:00,75.1,38.9,29.47,SE,135,1.7,6.3,27,-99.99,,,-99.99,WSDL version 342,2013-08-06 21:03:00,
2013-08-06 17:08:00,74.5,39.3,29.47,South,169,1.3,6.3,28,-99.99,,,-99.99,WSDL version 342,2013-08-06 21:08:00,
2013-08-06 17:13:00,74.2,40.5,29.47,ESE,113,2.0,4.0,29,-99.99,,,-99.99,WSDL version 342,2013-08-06 21:13:00,
2013-08-06 17:18:00,74.2,40.8,29.50,SE,145,0.5,4.0,30,-99.99,,,-99.99,WSDL version 342,2013-08-06 21:18:00,
2013-08-06 17:23:00,74.5,41.6,29.50,SW,233,0.1,1.6,31,-99.99,,,-99.99,WSDL version 342,2013-08-06 21:23:00,
2013-08-06 17:29:00,74.6,42.0,29.50,South,186,0.0,1.3,31,-99.99,,,-99.99,WSDL version 342,2013-08-06 21:29:00,
2013-08-06 17:34:00,74.8,42.2,29.50,South,169,1.0,2.5,31,-99.99,,,-99.99,WSDL version 342,2013-08-06 21:34:00,
2013-08-06 17:39:00,74.6,42.4,29.50,East,96,2.5,4.7,32,-99.99,,,-99.99,WSDL version 342,2013-08-06 21:39:00,
2013-08-06 17:44:00,74.2,42.5,29.50,NE,45,2.3,5.8,32,-99.99,,,-99.99,WSDL version 342,2013-08-06 21:44:00,
2013-08-06 17:49:00,73.4,43.2,29.50,East,87,3.1,8.1,34,-99.99,,,-99.99,WSDL version 342,2013-08-06 21:49:00,
2013-08-06 17:54:00,73.0,44.0,29.50,East,84,2.0,8.1,35,-99.99,,,-99.99,WSDL version 342,2013-08-06 21:54:00,
2013-08-06 18:00:00,72.5,44.2,29.50,SE,124,2.6,5.6,36,-99.99,,,-99.99,WSDL version 342,2013-08-06 22:00:00,
2013-08-06 18:05:00,72.0,44.4,29.50,SSE,158,1.8,5.6,37,-99.99,,,-99.99,WSDL version 342,2013-08-06 22:05:00,
2013-08-06 18:10:00,71.6,44.4,29.50,ENE,64,2.8,3.8,38,-99.99,,,-99.99,WSDL version 342,2013-08-06 22:10:00,
2013-08-06 18:15:00,70.9,44.1,29.50,East,100,3.1,5.8,38,-99.99,,,-99.99,WSDL version 342,2013-08-06 22:15:00,
2013-08-06 18:20:00,70.6,44.1,29.50,SE,130,2.1,5.8,39,-99.99,,,-99.99,WSDL version 342,2013-08-06 22:20:00,
2013-08-06 18:25:00,70.3,44.9,29.50,NW,309,1.5,4.9,42,-99.99,,,-99.99,WSDL version 342,2013-08-06 22:25:00,
2013-08-06 18:30:00,69.9,45.6,29.53,South,180,2.2,4.9,42,-99.99,,,-99.99,WSDL version 342,2013-08-06 22:30:00,
2013-08-06 18:35:00,69.8,45.7,29.53,NNE,26,0.6,4.3,42,-99.99,,,-99.99,WSDL version 342,2013-08-06 22:35:00,
2013-08-06 18:40:00,69.7,45.9,29.53,ENE,70,1.1,3.4,43,-99.99,,,-99.99,WSDL version 342,2013-08-06 22:40:00,
2013-08-06 18:45:00,69.4,46.8,29.53,ESE,105,0.4,4.0,45,-99.99,,,-99.99,WSDL version 342,2013-08-06 22:45:00,
2013-08-06 18:50:00,69.2,46.7,29.53,South,169,1.5,4.0,45,-99.99,,,-99.99,WSDL version 342,2013-08-06 22:50:00,
2013-08-06 18:55:00,68.9,47.4,29.53,South,188,0.7,3.6,47,-99.99,,,-99.99,WSDL version 342,2013-08-06 22:55:00,
2013-08-06 19:00:00,68.9,47.3,29.50,NE,45,0.0,2.9,46,-99.99,,,-99.99,WSDL version 342,2013-08-06 23:00:00,
2013-08-06 19:05:00,68.9,47.8,29.50,WNW,287,0.9,2.0,47,-99.99,,,-99.99,WSDL version 342,2013-08-06 23:05:00,
2013-08-06 19:10:00,68.7,48.3,29.50,SW,225,0.0,1.6,48,-99.99,,,-99.99,WSDL version 342,2013-08-06 23:10:00,
2013-08-06 19:15:00,68.7,48.5,29.53,ESE,107,0.3,1.3,49,-99.99,,,-99.99,WSDL version 342,2013-08-06 23:15:00,
2013-08-06 19:20:00,68.7,48.4,29.53,East,79,0.0,1.6,48,-99.99,,,-99.99,WSDL version 342,2013-08-06 23:20:00,
2013-08-06 19:25:00,68.7,49.1,29.53,West,264,1.3,2.7,50,-99.99,,,-99.99,WSDL version 342,2013-08-06 23:25:00,
2013-08-06 19:30:00,68.5,49.2,29.50,SSW,203,0.0,2.7,50,-99.99,,,-99.99,WSDL version 342,2013-08-06 23:30:00,
2013-08-06 19:35:00,68.5,49.2,29.50,South,176,0.0,2.0,50,-99.99,,,-99.99,WSDL version 342,2013-08-06 23:35:00,
2013-08-06 19:40:00,68.5,49.3,29.50,SSE,158,0.2,2.0,51,-99.99,,,-99.99,WSDL version 342,2013-08-06 23:40:00,
2013-08-06 19:45:00,68.4,49.5,29.53,South,169,0.1,1.6,52,-99.99,,,-99.99,WSDL version 342,2013-08-06 23:45:00,
2013-08-06 19:50:00,68.4,49.7,29.53,South,169,0.6,2.0,51,-99.99,,,-99.99,WSDL version 342,2013-08-06 23:50:00,
2013-08-06 19:55:00,68.4,49.7,29.53,SSW,195,0.4,2.0,52,-99.99,,,-99.99,WSDL version 342,2013-08-06 23:55:00,
2013-08-06 20:00:00,68.2,50.0,29.53,South,180,1.1,1.3,52,-99.99,,,-99.99,WSDL version 342,2013-08-07 00:00:00,
2013-08-06 20:05:00,68.2,49.9,29.53,NW,315,0.3,1.1,52,-99.99,,,-99.99,WSDL version 342,2013-08-07 00:05:00,
2013-08-06 20:10:00,68.0,49.9,29.53,NW,315,0.0,1.1,52,-99.99,,,-99.99,WSDL version 342,2013-08-07 00:10:00,
2013-08-06 20:15:00,67.9,50.2,29.56,NW,315,0.0,0.0,53,-99.99,,,-99.99,WSDL version 342,2013-08-07 00:15:00,
2013-08-06 20:22:00,67.6,50.1,29.56,NW,315,0.0,0.0,54,-99.99,,,-99.99,WSDL version 342,2013-08-07 00:22:00,
2013-08-06 20:27:00,67.5,50.9,29.56,NW,315,0.0,0.0,56,-99.99,,,-99.99,WSDL version 342,2013-08-07 00:27:00,
2013-08-06 20:32:00,67.3,51.1,29.53,NW,315,0.0,0.0,56,-99.99,,,-99.99,WSDL version 342,2013-08-07 00:32:00,
2013-08-06 20:37:00,67.3,51.2,29.53,NW,315,0.0,0.0,57,-99.99,,,-99.99,WSDL version 342,2013-08-07 00:37:00,
2013-08-06 20:42:00,67.3,51.8,29.53,NW,315,0.0,0.0,58,-99.99,,,-99.99,WSDL version 342,2013-08-07 00:42:00,
2013-08-06 20:47:00,67.3,52.0,29.53,SW,225,0.0,0.0,58,-99.99,,,-99.99,WSDL version 342,2013-08-07 00:47:00,
2013-08-06 20:52:00,67.3,52.5,29.53,SW,225,0.0,0.0,59,-99.99,,,-99.99,WSDL version 342,2013-08-07 00:52:00,
2013-08-06 20:57:00,67.3,52.4,29.53,South,180,0.0,0.0,59,-99.99,,,-99.99,WSDL version 342,2013-08-07 00:57:00,
2013-08-06 21:02:00,67.1,51.9,29.53,East,90,0.0,0.0,58,-99.99,,,-99.99,WSDL version 342,2013-08-07 01:02:00,
2013-08-06 21:07:00,67.1,51.8,29.53,East,90,0.0,0.0,58,-99.99,,,-99.99,WSDL version 342,2013-08-07 01:07:00,
2013-08-06 21:12:00,67.1,51.7,29.53,SE,141,0.0,0.0,58,-99.99,,,-99.99,WSDL version 342,2013-08-07 01:12:00,
2013-08-06 21:17:00,67.1,51.7,29.53,South,173,0.0,2.0,58,-99.99,,,-99.99,WSDL version 342,2013-08-07 01:17:00,
2013-08-06 21:22:00,67.1,51.8,29.53,SSE,158,0.0,2.0,58,-99.99,,,-99.99,WSDL version 342,2013-08-07 01:22:00,
2013-08-06 21:27:00,67.1,51.4,29.53,SSE,158,0.0,0.0,57,-99.99,,,-99.99,WSDL version 342,2013-08-07 01:27:00,
2013-08-06 21:32:00,66.9,50.9,29.56,ESE,113,0.0,0.0,57,-99.99,,,-99.99,WSDL version 342,2013-08-07 01:32:00,
2013-08-06 21:37:00,66.9,50.9,29.56,ENE,62,0.4,1.3,56,-99.99,,,-99.99,WSDL version 342,2013-08-07 01:37:00,
2013-08-06 21:42:00,66.9,50.5,29.56,NE,45,0.0,1.3,55,-99.99,,,-99.99,WSDL version 342,2013-08-07 01:42:00,
2013-08-06 21:48:00,66.7,50.0,29.53,ESE,113,0.0,1.1,54,-99.99,,,-99.99,WSDL version 342,2013-08-07 01:48:00,
2013-08-06 21:53:00,66.6,49.6,29.53,SSE,158,0.0,1.6,54,-99.99,,,-99.99,WSDL version 342,2013-08-07 01:53:00,
2013-08-06 21:58:00,66.5,49.4,29.56,SSE,150,0.6,1.6,54,-99.99,,,-99.99,WSDL version 342,2013-08-07 01:58:00,
2013-08-06 22:03:00,66.3,49.6,29.56,South,180,0.7,2.0,55,-99.99,,,-99.99,WSDL version 342,2013-08-07 02:03:00,
2013-08-06 22:08:00,66.2,49.2,29.56,South,180,0.0,2.0,54,-99.99,,,-99.99,WSDL version 342,2013-08-07 02:08:00,
2013-08-06 22:13:00,66.0,49.4,29.56,South,180,0.0,0.0,55,-99.99,,,-99.99,WSDL version 342,2013-08-07 02:13:00,
2013-08-06 22:18:00,65.9,49.4,29.56,SW,225,0.9,0.0,55,-99.99,,,-99.99,WSDL version 342,2013-08-07 02:18:00,
2013-08-06 22:23:00,65.8,49.6,29.56,SE,129,0.0,2.7,56,-99.99,,,-99.99,WSDL version 342,2013-08-07 02:23:00,
2013-08-06 22:28:00,65.8,50.0,29.53,NE,45,2.0,2.7,57,-99.99,,,-99.99,WSDL version 342,2013-08-07 02:28:00,
2013-08-06 22:33:00,65.8,50.0,29.53,SW,230,1.0,1.6,56,-99.99,,,-99.99,WSDL version 342,2013-08-07 02:33:00,
2013-08-06 22:39:00,65.8,50.0,29.53,WSW,252,0.0,1.3,56,-99.99,,,-99.99,WSDL version 342,2013-08-07 02:39:00,
2013-08-06 22:44:00,65.7,49.9,29.56,WNW,293,0.0,0.0,57,-99.99,,,-99.99,WSDL version 342,2013-08-07 02:44:00,
2013-08-06 22:49:00,65.6,50.3,29.56,West,276,0.0,0.9,58,-99.99,,,-99.99,WSDL version 342,2013-08-07 02:49:00,
2013-08-06 22:54:00,65.4,50.5,29.56,SW,225,0.0,0.9,58,-99.99,,,-99.99,WSDL version 342,2013-08-07 02:54:00,
2013-08-06 22:59:00,65.2,50.4,29.56,WSW,251,0.1,1.3,59,-99.99,,,-99.99,WSDL version 342,2013-08-07 02:59:00,
2013-08-06 23:04:00,65.0,50.5,29.56,NW,315,0.0,1.3,60,-99.99,,,-99.99,WSDL version 342,2013-08-07 03:04:00,
2013-08-06 23:09:00,64.7,50.5,29.56,NW,315,0.0,1.3,60,-99.99,,,-99.99,WSDL version 342,2013-08-07 03:09:00,
2013-08-06 23:14:00,64.4,50.7,29.53,NW,315,0.0,0.0,61,-99.99,,,-99.99,WSDL version 342,2013-08-07 03:14:00,
2013-08-06 23:19:00,64.3,51.1,29.53,NW,315,0.0,0.0,63,-99.99,,,-99.99,WSDL version 342,2013-08-07 03:19:00,
2013-08-06 23:24:00,64.2,51.6,29.53,NW,315,0.0,0.0,64,-99.99,,,-99.99,WSDL version 342,2013-08-07 03:24:00,
2013-08-06 23:29:00,64.2,51.5,29.53,NW,315,0.0,0.0,63,-99.99,,,-99.99,WSDL version 342,2013-08-07 03:29:00,
2013-08-06 23:34:00,64.2,51.9,29.53,NW,315,0.0,0.0,65,-99.99,,,-99.99,WSDL version 342,2013-08-07 03:34:00,
2013-08-06 23:40:00,64.1,52.1,-100.00,North,0,0.0,0.0,65,-99.99,,,-99.99,WSDL version 342,2013-08-07 03:40:00,
2013-08-06 23:45:00,64.0,52.1,29.53,South,180,0.0,0.0,65,-99.99,,,-99.99,WSDL version 342,2013-08-07 03:45:00,
2013-08-06 23:50:00,63.9,51.9,29.53,South,180,0.0,0.0,65,-99.99,,,-99.99,WSDL version 342,2013-08-07 03:50:00,
2013-08-06 23:55:00,63.6,51.8,29.53,South,180,0.0,0.0,66,-99.99,,,-99.99,WSDL version 342,2013-08-07 03:55:00,